sensor_id;sensor_type;location;lat;lon;timestamp;temperature;humidity
39919;DHT22;25589;51.552;13.424;2023-07-29T00:01:20;20.40;99.90
39919;DHT22;25589;51.552;13.424;2023-07-29T00:03:46;20.40;99.90
39919;DHT22;25589;51.552;13.424;2023-07-29T00:06:11;20.30;99.90
39919;DHT22;25589;51.552;13.424;2023-07-29T00:08:37;20.20;99.90
39919;DHT22;25589;51.552;13.424;2023-07-29T00:11:02;20.10;99.90
39919;DHT22;25589;51.552;13.424;2023-07-29T00:13:28;20.10;99.90
39919;DHT22;25589;51.552;13.424;2023-07-29T00:15:55;20.10;99.90
39919;DHT22;25589;51.552;13.424;2023-07-29T00:18:21;20.20;99.90
39919;DHT22;25589;51.552;13.424;2023-07-29T00:20:47;20.10;99.90
39919;DHT22;25589;51.552;13.424;2023-07-29T00:23:13;20.10;99.90
39919;DHT22;25589;51.552;13.424;2023-07-29T00:25:38;20.10;99.90
39919;DHT22;25589;51.552;13.424;2023-07-29T00:28:04;20.10;99.90
39919;DHT22;25589;51.552;13.424;2023-07-29T00:30:30;20.00;99.90
39919;DHT22;25589;51.552;13.424;2023-07-29T00:32:55;20.00;99.90
39919;DHT22;25589;51.552;13.424;2023-07-29T00:35:21;20.00;99.90
39919;DHT22;25589;51.552;13.424;2023-07-29T00:37:46;20.00;99.90
39919;DHT22;25589;51.552;13.424;2023-07-29T00:40:20;20.00;99.90
39919;DHT22;25589;51.552;13.424;2023-07-29T00:42:47;19.90;99.90
39919;DHT22;25589;51.552;13.424;2023-07-29T00:45:13;19.90;99.90
39919;DHT22;25589;51.552;13.424;2023-07-29T00:47:39;19.90;99.90
39919;DHT22;25589;51.552;13.424;2023-07-29T00:50:05;19.80;99.90
39919;DHT22;25589;51.552;13.424;2023-07-29T00:52:32;19.80;99.90
39919;DHT22;25589;51.552;13.424;2023-07-29T00:54:57;19.80;99.90
39919;DHT22;25589;51.552;13.424;2023-07-29T00:59:51;19.60;99.90
39919;DHT22;25589;51.552;13.424;2023-07-29T01:02:16;19.70;99.90
39919;DHT22;25589;51.552;13.424;2023-07-29T01:04:42;19.70;99.90
39919;DHT22;25589;51.552;13.424;2023-07-29T01:07:33;19.60;99.90
39919;DHT22;25589;51.552;13.424;2023-07-29T01:10:07;19.60;99.90
39919;DHT22;25589;51.552;13.424;2023-07-29T01:15:24;19.60;99.90
39919;DHT22;25589;51.552;13.424;2023-07-29T01:18:01;19.60;99.90
39919;DHT22;25589;51.552;13.424;2023-07-29T01:20:32;19.60;99.90
39919;DHT22;25589;51.552;13.424;2023-07-29T01:22:58;19.50;99.90
39919;DHT22;25589;51.552;13.424;2023-07-29T01:25:24;19.50;99.90
39919;DHT22;25589;51.552;13.424;2023-07-29T01:27:52;19.50;99.90
39919;DHT22;25589;51.552;13.424;2023-07-29T01:30:19;19.50;99.90
39919;DHT22;25589;51.552;13.424;2023-07-29T01:32:53;19.60;99.90
39919;DHT22;25589;51.552;13.424;2023-07-29T01:37:55;19.40;99.90
39919;DHT22;25589;51.552;13.424;2023-07-29T01:40:27;19.40;99.90
39919;DHT22;25589;51.552;13.424;2023-07-29T01:42:53;19.50;99.90
39919;DHT22;25589;51.552;13.424;2023-07-29T01:45:19;19.50;99.90
39919;DHT22;25589;51.552;13.424;2023-07-29T01:47:48;19.50;99.90
39919;DHT22;25589;51.552;13.424;2023-07-29T01:50:14;19.40;99.90
39919;DHT22;25589;51.552;13.424;2023-07-29T01:52:40;19.40;99.90
39919;DHT22;25589;51.552;13.424;2023-07-29T01:55:05;19.40;99.90
39919;DHT22;25589;51.552;13.424;2023-07-29T01:57:31;19.40;99.90
39919;DHT22;25589;51.552;13.424;2023-07-29T01:59:57;19.40;99.90
39919;DHT22;25589;51.552;13.424;2023-07-29T02:02:22;19.30;99.90
39919;DHT22;25589;51.552;13.424;2023-07-29T02:04:48;19.30;99.90
39919;DHT22;25589;51.552;13.424;2023-07-29T02:07:18;19.30;99.90
39919;DHT22;25589;51.552;13.424;2023-07-29T02:09:44;19.30;99.90
39919;DHT22;25589;51.552;13.424;2023-07-29T02:12:10;19.30;99.90
39919;DHT22;25589;51.552;13.424;2023-07-29T02:14:38;19.30;99.90
39919;DHT22;25589;51.552;13.424;2023-07-29T02:17:04;19.30;99.90
39919;DHT22;25589;51.552;13.424;2023-07-29T02:19:29;19.30;99.90
39919;DHT22;25589;51.552;13.424;2023-07-29T02:21:55;19.30;99.90
39919;DHT22;25589;51.552;13.424;2023-07-29T02:24:21;19.30;99.90
39919;DHT22;25589;51.552;13.424;2023-07-29T02:26:46;19.30;99.90
39919;DHT22;25589;51.552;13.424;2023-07-29T02:29:12;19.30;99.90
39919;DHT22;25589;51.552;13.424;2023-07-29T02:31:37;19.30;99.90
39919;DHT22;25589;51.552;13.424;2023-07-29T02:34:04;19.30;99.90
39919;DHT22;25589;51.552;13.424;2023-07-29T02:36:30;19.60;99.90
39919;DHT22;25589;51.552;13.424;2023-07-29T02:38:56;19.40;99.90
39919;DHT22;25589;51.552;13.424;2023-07-29T02:41:21;19.40;99.90
39919;DHT22;25589;51.552;13.424;2023-07-29T02:43:51;19.50;99.90
39919;DHT22;25589;51.552;13.424;2023-07-29T02:46:17;19.40;99.90
39919;DHT22;25589;51.552;13.424;2023-07-29T02:48:44;19.50;99.90
39919;DHT22;25589;51.552;13.424;2023-07-29T02:51:10;19.50;99.90
39919;DHT22;25589;51.552;13.424;2023-07-29T02:53:35;19.50;99.90
39919;DHT22;25589;51.552;13.424;2023-07-29T02:56:04;19.40;99.90
39919;DHT22;25589;51.552;13.424;2023-07-29T02:58:30;19.50;99.90
39919;DHT22;25589;51.552;13.424;2023-07-29T03:01:03;19.40;99.90
39919;DHT22;25589;51.552;13.424;2023-07-29T03:03:30;19.50;99.90
39919;DHT22;25589;51.552;13.424;2023-07-29T03:06:04;19.50;99.90
39919;DHT22;25589;51.552;13.424;2023-07-29T03:08:30;19.50;99.90
39919;DHT22;25589;51.552;13.424;2023-07-29T03:10:56;19.50;99.90
39919;DHT22;25589;51.552;13.424;2023-07-29T03:13:22;19.50;99.90
39919;DHT22;25589;51.552;13.424;2023-07-29T03:15:47;19.50;99.90
39919;DHT22;25589;51.552;13.424;2023-07-29T03:18:14;19.60;99.90
39919;DHT22;25589;51.552;13.424;2023-07-29T03:20:40;19.50;99.90
39919;DHT22;25589;51.552;13.424;2023-07-29T03:23:05;19.50;99.90
39919;DHT22;25589;51.552;13.424;2023-07-29T03:25:31;19.50;99.90
39919;DHT22;25589;51.552;13.424;2023-07-29T03:27:57;19.80;99.90
39919;DHT22;25589;51.552;13.424;2023-07-29T03:30:22;19.60;99.90
39919;DHT22;25589;51.552;13.424;2023-07-29T03:32:49;19.60;99.90
39919;DHT22;25589;51.552;13.424;2023-07-29T03:35:15;19.60;99.90
39919;DHT22;25589;51.552;13.424;2023-07-29T03:37:41;19.60;99.90
39919;DHT22;25589;51.552;13.424;2023-07-29T03:40:08;19.60;99.90
39919;DHT22;25589;51.552;13.424;2023-07-29T03:42:35;19.60;99.90
39919;DHT22;25589;51.552;13.424;2023-07-29T03:45:01;19.60;99.90
39919;DHT22;25589;51.552;13.424;2023-07-29T03:47:27;19.70;99.90
39919;DHT22;25589;51.552;13.424;2023-07-29T03:49:53;19.60;99.90
39919;DHT22;25589;51.552;13.424;2023-07-29T03:52:21;19.70;99.90
39919;DHT22;25589;51.552;13.424;2023-07-29T03:54:47;19.70;99.90
39919;DHT22;25589;51.552;13.424;2023-07-29T03:57:12;19.70;99.90
39919;DHT22;25589;51.552;13.424;2023-07-29T03:59:38;19.70;99.90
39919;DHT22;25589;51.552;13.424;2023-07-29T04:02:04;19.70;99.90
39919;DHT22;25589;51.552;13.424;2023-07-29T04:04:29;19.80;99.90
39919;DHT22;25589;51.552;13.424;2023-07-29T04:06:55;19.80;99.90
39919;DHT22;25589;51.552;13.424;2023-07-29T04:09:21;19.80;99.90
39919;DHT22;25589;51.552;13.424;2023-07-29T04:11:47;19.80;99.90
39919;DHT22;25589;51.552;13.424;2023-07-29T04:14:13;19.90;99.90
39919;DHT22;25589;51.552;13.424;2023-07-29T04:16:38;19.80;99.90
39919;DHT22;25589;51.552;13.424;2023-07-29T04:19:04;19.90;99.90
39919;DHT22;25589;51.552;13.424;2023-07-29T04:21:29;19.90;99.90
39919;DHT22;25589;51.552;13.424;2023-07-29T04:23:55;19.90;99.90
39919;DHT22;25589;51.552;13.424;2023-07-29T04:26:20;20.00;99.90
39919;DHT22;25589;51.552;13.424;2023-07-29T04:28:46;20.00;99.90
39919;DHT22;25589;51.552;13.424;2023-07-29T04:31:12;20.00;99.90
39919;DHT22;25589;51.552;13.424;2023-07-29T04:33:37;20.00;99.90
39919;DHT22;25589;51.552;13.424;2023-07-29T04:36:03;20.10;99.90
39919;DHT22;25589;51.552;13.424;2023-07-29T04:38:31;20.10;99.90
39919;DHT22;25589;51.552;13.424;2023-07-29T04:41:00;20.10;99.90
39919;DHT22;25589;51.552;13.424;2023-07-29T04:43:28;20.10;99.90
39919;DHT22;25589;51.552;13.424;2023-07-29T04:45:54;20.00;99.90
39919;DHT22;25589;51.552;13.424;2023-07-29T04:48:19;20.00;99.90
39919;DHT22;25589;51.552;13.424;2023-07-29T04:50:45;20.00;99.90
39919;DHT22;25589;51.552;13.424;2023-07-29T04:53:11;20.00;99.90
39919;DHT22;25589;51.552;13.424;2023-07-29T04:55:37;20.00;99.90
39919;DHT22;25589;51.552;13.424;2023-07-29T04:58:02;20.10;99.90
39919;DHT22;25589;51.552;13.424;2023-07-29T05:00:29;20.10;99.90
39919;DHT22;25589;51.552;13.424;2023-07-29T05:02:54;20.20;99.90
39919;DHT22;25589;51.552;13.424;2023-07-29T05:05:20;20.20;99.90
39919;DHT22;25589;51.552;13.424;2023-07-29T05:07:46;20.30;99.90
39919;DHT22;25589;51.552;13.424;2023-07-29T05:10:11;20.40;99.90
39919;DHT22;25589;51.552;13.424;2023-07-29T05:12:37;20.40;99.90
39919;DHT22;25589;51.552;13.424;2023-07-29T05:15:02;20.40;99.90
39919;DHT22;25589;51.552;13.424;2023-07-29T05:17:28;20.40;99.90
39919;DHT22;25589;51.552;13.424;2023-07-29T05:19:54;20.50;99.90
39919;DHT22;25589;51.552;13.424;2023-07-29T05:22:19;20.50;99.90
39919;DHT22;25589;51.552;13.424;2023-07-29T05:24:45;20.50;99.90
39919;DHT22;25589;51.552;13.424;2023-07-29T05:27:11;20.50;99.90
39919;DHT22;25589;51.552;13.424;2023-07-29T05:29:36;20.50;99.90
39919;DHT22;25589;51.552;13.424;2023-07-29T05:32:02;20.60;99.90
39919;DHT22;25589;51.552;13.424;2023-07-29T05:34:28;20.60;99.90
39919;DHT22;25589;51.552;13.424;2023-07-29T05:36:53;20.60;99.90
39919;DHT22;25589;51.552;13.424;2023-07-29T05:39:19;20.60;99.90
39919;DHT22;25589;51.552;13.424;2023-07-29T05:41:44;20.60;99.90
39919;DHT22;25589;51.552;13.424;2023-07-29T05:44:11;20.70;99.90
39919;DHT22;25589;51.552;13.424;2023-07-29T05:46:36;20.70;99.90
39919;DHT22;25589;51.552;13.424;2023-07-29T05:49:02;20.70;99.90
39919;DHT22;25589;51.552;13.424;2023-07-29T05:51:28;20.80;99.90
39919;DHT22;25589;51.552;13.424;2023-07-29T05:53:53;20.90;99.90
39919;DHT22;25589;51.552;13.424;2023-07-29T05:56:19;21.00;99.90
39919;DHT22;25589;51.552;13.424;2023-07-29T05:58:44;21.00;99.90
39919;DHT22;25589;51.552;13.424;2023-07-29T06:01:10;21.00;99.90
39919;DHT22;25589;51.552;13.424;2023-07-29T06:03:36;21.10;99.90
39919;DHT22;25589;51.552;13.424;2023-07-29T06:06:01;21.10;99.90
39919;DHT22;25589;51.552;13.424;2023-07-29T06:08:27;21.20;99.90
39919;DHT22;25589;51.552;13.424;2023-07-29T06:10:54;21.30;99.90
39919;DHT22;25589;51.552;13.424;2023-07-29T06:13:20;21.30;99.90
39919;DHT22;25589;51.552;13.424;2023-07-29T06:15:45;21.40;99.90
39919;DHT22;25589;51.552;13.424;2023-07-29T06:18:11;21.50;99.90
39919;DHT22;25589;51.552;13.424;2023-07-29T06:20:37;21.50;99.90
39919;DHT22;25589;51.552;13.424;2023-07-29T06:23:03;21.60;99.90
39919;DHT22;25589;51.552;13.424;2023-07-29T06:25:29;21.70;99.90
39919;DHT22;25589;51.552;13.424;2023-07-29T06:27:55;21.80;99.90
39919;DHT22;25589;51.552;13.424;2023-07-29T06:30:20;21.80;99.90
39919;DHT22;25589;51.552;13.424;2023-07-29T06:32:46;21.80;99.90
39919;DHT22;25589;51.552;13.424;2023-07-29T06:35:11;21.90;99.90
39919;DHT22;25589;51.552;13.424;2023-07-29T06:37:37;22.00;99.90
39919;DHT22;25589;51.552;13.424;2023-07-29T06:40:03;22.00;99.90
39919;DHT22;25589;51.552;13.424;2023-07-29T06:42:29;22.10;99.90
39919;DHT22;25589;51.552;13.424;2023-07-29T06:44:55;22.10;99.90
39919;DHT22;25589;51.552;13.424;2023-07-29T06:47:20;22.30;99.90
39919;DHT22;25589;51.552;13.424;2023-07-29T06:49:46;22.30;99.90
39919;DHT22;25589;51.552;13.424;2023-07-29T06:52:12;22.30;99.90
39919;DHT22;25589;51.552;13.424;2023-07-29T06:54:38;22.40;99.90
39919;DHT22;25589;51.552;13.424;2023-07-29T06:57:04;22.50;99.90
39919;DHT22;25589;51.552;13.424;2023-07-29T06:59:29;22.50;99.90
39919;DHT22;25589;51.552;13.424;2023-07-29T07:01:55;22.60;99.90
39919;DHT22;25589;51.552;13.424;2023-07-29T07:04:20;22.60;99.90
39919;DHT22;25589;51.552;13.424;2023-07-29T07:06:46;22.70;99.90
39919;DHT22;25589;51.552;13.424;2023-07-29T07:09:11;22.80;99.90
39919;DHT22;25589;51.552;13.424;2023-07-29T07:11:37;22.90;99.90
39919;DHT22;25589;51.552;13.424;2023-07-29T07:14:02;23.10;99.90
39919;DHT22;25589;51.552;13.424;2023-07-29T07:16:28;23.10;99.90
39919;DHT22;25589;51.552;13.424;2023-07-29T07:18:56;23.20;99.90
39919;DHT22;25589;51.552;13.424;2023-07-29T07:21:21;23.30;99.90
39919;DHT22;25589;51.552;13.424;2023-07-29T07:23:49;23.40;99.90
39919;DHT22;25589;51.552;13.424;2023-07-29T07:26:15;23.50;99.90
39919;DHT22;25589;51.552;13.424;2023-07-29T07:28:40;23.60;99.90
39919;DHT22;25589;51.552;13.424;2023-07-29T07:31:06;23.80;99.90
39919;DHT22;25589;51.552;13.424;2023-07-29T07:33:32;23.90;99.90
39919;DHT22;25589;51.552;13.424;2023-07-29T07:35:57;24.00;99.90
39919;DHT22;25589;51.552;13.424;2023-07-29T07:38:23;24.10;99.90
39919;DHT22;25589;51.552;13.424;2023-07-29T07:40:55;24.10;99.90
39919;DHT22;25589;51.552;13.424;2023-07-29T07:43:22;24.20;99.90
39919;DHT22;25589;51.552;13.424;2023-07-29T07:45:48;24.30;99.90
39919;DHT22;25589;51.552;13.424;2023-07-29T07:48:14;24.30;99.90
39919;DHT22;25589;51.552;13.424;2023-07-29T07:50:39;24.30;99.90
39919;DHT22;25589;51.552;13.424;2023-07-29T07:53:05;24.40;99.90
39919;DHT22;25589;51.552;13.424;2023-07-29T07:55:31;24.40;99.90
39919;DHT22;25589;51.552;13.424;2023-07-29T07:57:56;24.40;99.90
39919;DHT22;25589;51.552;13.424;2023-07-29T08:00:22;24.40;99.90
39919;DHT22;25589;51.552;13.424;2023-07-29T08:02:47;24.50;99.90
39919;DHT22;25589;51.552;13.424;2023-07-29T08:05:13;24.50;99.90
39919;DHT22;25589;51.552;13.424;2023-07-29T08:07:39;24.50;99.90
39919;DHT22;25589;51.552;13.424;2023-07-29T08:10:05;24.70;99.90
39919;DHT22;25589;51.552;13.424;2023-07-29T08:12:30;24.70;99.90
39919;DHT22;25589;51.552;13.424;2023-07-29T08:14:56;24.80;99.90
39919;DHT22;25589;51.552;13.424;2023-07-29T08:17:21;24.90;99.90
39919;DHT22;25589;51.552;13.424;2023-07-29T08:19:47;25.10;99.90
39919;DHT22;25589;51.552;13.424;2023-07-29T08:22:12;25.10;99.90
39919;DHT22;25589;51.552;13.424;2023-07-29T08:24:38;25.10;99.90
39919;DHT22;25589;51.552;13.424;2023-07-29T08:27:04;25.10;99.90
39919;DHT22;25589;51.552;13.424;2023-07-29T08:29:29;25.10;99.90
39919;DHT22;25589;51.552;13.424;2023-07-29T08:31:55;25.10;99.90
39919;DHT22;25589;51.552;13.424;2023-07-29T08:34:21;25.20;99.90
39919;DHT22;25589;51.552;13.424;2023-07-29T08:36:46;25.20;99.90
39919;DHT22;25589;51.552;13.424;2023-07-29T08:39:12;25.20;99.90
39919;DHT22;25589;51.552;13.424;2023-07-29T08:41:45;25.20;99.90
39919;DHT22;25589;51.552;13.424;2023-07-29T08:44:21;25.20;99.90
39919;DHT22;25589;51.552;13.424;2023-07-29T08:46:50;25.30;99.90
39919;DHT22;25589;51.552;13.424;2023-07-29T08:49:18;25.30;99.90
39919;DHT22;25589;51.552;13.424;2023-07-29T08:51:49;25.40;99.90
39919;DHT22;25589;51.552;13.424;2023-07-29T08:54:15;25.50;99.90
39919;DHT22;25589;51.552;13.424;2023-07-29T08:56:42;25.60;99.90
39919;DHT22;25589;51.552;13.424;2023-07-29T08:59:08;25.60;99.90
39919;DHT22;25589;51.552;13.424;2023-07-29T09:01:34;25.60;99.90
39919;DHT22;25589;51.552;13.424;2023-07-29T09:04:00;25.60;99.90
39919;DHT22;25589;51.552;13.424;2023-07-29T09:06:26;25.70;99.90
39919;DHT22;25589;51.552;13.424;2023-07-29T09:08:54;25.70;99.90
39919;DHT22;25589;51.552;13.424;2023-07-29T09:11:21;25.80;99.90
39919;DHT22;25589;51.552;13.424;2023-07-29T09:13:47;25.80;99.90
39919;DHT22;25589;51.552;13.424;2023-07-29T09:16:13;25.80;99.90
39919;DHT22;25589;51.552;13.424;2023-07-29T09:18:39;25.90;99.90
39919;DHT22;25589;51.552;13.424;2023-07-29T09:21:05;26.10;99.90
39919;DHT22;25589;51.552;13.424;2023-07-29T09:23:44;26.10;99.90
39919;DHT22;25589;51.552;13.424;2023-07-29T09:26:11;26.10;99.90
39919;DHT22;25589;51.552;13.424;2023-07-29T09:28:39;26.00;99.90
39919;DHT22;25589;51.552;13.424;2023-07-29T09:31:05;26.10;99.90
39919;DHT22;25589;51.552;13.424;2023-07-29T09:33:34;26.20;99.90
39919;DHT22;25589;51.552;13.424;2023-07-29T09:36:08;26.20;99.90
39919;DHT22;25589;51.552;13.424;2023-07-29T09:38:34;26.30;99.90
39919;DHT22;25589;51.552;13.424;2023-07-29T09:41:01;26.50;99.90
39919;DHT22;25589;51.552;13.424;2023-07-29T09:43:32;26.60;99.90
39919;DHT22;25589;51.552;13.424;2023-07-29T09:46:02;26.70;99.90
39919;DHT22;25589;51.552;13.424;2023-07-29T09:48:32;26.90;99.90
39919;DHT22;25589;51.552;13.424;2023-07-29T09:50:57;27.00;99.90
39919;DHT22;25589;51.552;13.424;2023-07-29T09:53:24;27.10;99.90
39919;DHT22;25589;51.552;13.424;2023-07-29T09:55:49;27.00;99.90
39919;DHT22;25589;51.552;13.424;2023-07-29T09:58:25;26.80;99.90
39919;DHT22;25589;51.552;13.424;2023-07-29T10:00:51;26.80;99.90
39919;DHT22;25589;51.552;13.424;2023-07-29T10:03:18;26.70;99.90
39919;DHT22;25589;51.552;13.424;2023-07-29T10:05:45;26.60;99.90
39919;DHT22;25589;51.552;13.424;2023-07-29T10:08:11;26.60;99.90
39919;DHT22;25589;51.552;13.424;2023-07-29T10:10:38;26.60;99.90
39919;DHT22;25589;51.552;13.424;2023-07-29T10:13:03;26.60;99.90
39919;DHT22;25589;51.552;13.424;2023-07-29T10:15:31;26.60;99.90
39919;DHT22;25589;51.552;13.424;2023-07-29T10:17:58;26.70;99.90
39919;DHT22;25589;51.552;13.424;2023-07-29T10:20:24;26.70;99.90
39919;DHT22;25589;51.552;13.424;2023-07-29T10:22:51;26.80;99.90
39919;DHT22;25589;51.552;13.424;2023-07-29T10:25:24;27.00;99.90
39919;DHT22;25589;51.552;13.424;2023-07-29T10:28:00;27.10;99.90
39919;DHT22;25589;51.552;13.424;2023-07-29T10:30:28;27.00;99.90
39919;DHT22;25589;51.552;13.424;2023-07-29T10:32:58;27.00;99.90
39919;DHT22;25589;51.552;13.424;2023-07-29T10:35:24;26.90;99.90
39919;DHT22;25589;51.552;13.424;2023-07-29T10:37:51;26.90;99.90
39919;DHT22;25589;51.552;13.424;2023-07-29T10:40:19;26.90;99.90
39919;DHT22;25589;51.552;13.424;2023-07-29T10:43:09;26.90;99.90
39919;DHT22;25589;51.552;13.424;2023-07-29T10:45:40;27.00;99.90
39919;DHT22;25589;51.552;13.424;2023-07-29T10:48:10;26.90;99.90
39919;DHT22;25589;51.552;13.424;2023-07-29T10:50:36;27.00;99.90
39919;DHT22;25589;51.552;13.424;2023-07-29T10:53:02;27.00;99.90
39919;DHT22;25589;51.552;13.424;2023-07-29T10:55:34;26.90;99.90
39919;DHT22;25589;51.552;13.424;2023-07-29T10:58:15;26.80;99.90
39919;DHT22;25589;51.552;13.424;2023-07-29T11:00:45;27.00;99.90
39919;DHT22;25589;51.552;13.424;2023-07-29T11:03:12;26.90;99.90
39919;DHT22;25589;51.552;13.424;2023-07-29T11:05:49;26.90;99.90
39919;DHT22;25589;51.552;13.424;2023-07-29T11:08:28;27.00;99.90
39919;DHT22;25589;51.552;13.424;2023-07-29T11:13:31;27.20;99.90
39919;DHT22;25589;51.552;13.424;2023-07-29T11:15:58;27.30;99.90
39919;DHT22;25589;51.552;13.424;2023-07-29T11:18:29;27.50;99.90
39919;DHT22;25589;51.552;13.424;2023-07-29T11:20:56;27.70;99.90
39919;DHT22;25589;51.552;13.424;2023-07-29T11:23:34;27.80;99.90
39919;DHT22;25589;51.552;13.424;2023-07-29T11:26:00;28.00;99.90
39919;DHT22;25589;51.552;13.424;2023-07-29T11:28:27;27.90;99.90
39919;DHT22;25589;51.552;13.424;2023-07-29T11:30:55;28.00;99.90
39919;DHT22;25589;51.552;13.424;2023-07-29T11:33:25;28.00;99.90
39919;DHT22;25589;51.552;13.424;2023-07-29T11:35:52;27.90;99.90
39919;DHT22;25589;51.552;13.424;2023-07-29T11:38:19;27.90;99.90
39919;DHT22;25589;51.552;13.424;2023-07-29T11:41:01;28.00;99.90
39919;DHT22;25589;51.552;13.424;2023-07-29T11:43:35;28.10;99.90
39919;DHT22;25589;51.552;13.424;2023-07-29T11:46:01;28.10;99.90
39919;DHT22;25589;51.552;13.424;2023-07-29T11:48:28;28.10;99.90
39919;DHT22;25589;51.552;13.424;2023-07-29T11:50:54;28.30;99.90
39919;DHT22;25589;51.552;13.424;2023-07-29T11:53:20;28.30;99.90
39919;DHT22;25589;51.552;13.424;2023-07-29T11:55:51;28.30;99.90
39919;DHT22;25589;51.552;13.424;2023-07-29T11:58:18;28.40;99.90
39919;DHT22;25589;51.552;13.424;2023-07-29T12:00:43;28.20;99.90
39919;DHT22;25589;51.552;13.424;2023-07-29T12:03:09;28.10;99.90
39919;DHT22;25589;51.552;13.424;2023-07-29T12:05:36;28.10;99.90
39919;DHT22;25589;51.552;13.424;2023-07-29T12:08:02;28.00;99.90
39919;DHT22;25589;51.552;13.424;2023-07-29T12:10:27;27.80;99.90
39919;DHT22;25589;51.552;13.424;2023-07-29T12:12:53;27.60;99.90
39919;DHT22;25589;51.552;13.424;2023-07-29T12:15:26;27.60;99.90
39919;DHT22;25589;51.552;13.424;2023-07-29T12:18:01;27.50;99.90
39919;DHT22;25589;51.552;13.424;2023-07-29T12:20:29;27.40;99.90
39919;DHT22;25589;51.552;13.424;2023-07-29T12:23:01;27.10;99.90
39919;DHT22;25589;51.552;13.424;2023-07-29T12:25:28;27.00;99.90
39919;DHT22;25589;51.552;13.424;2023-07-29T12:27:54;27.00;99.90
39919;DHT22;25589;51.552;13.424;2023-07-29T12:30:21;27.10;99.90
39919;DHT22;25589;51.552;13.424;2023-07-29T12:32:47;27.10;99.90
39919;DHT22;25589;51.552;13.424;2023-07-29T12:35:13;27.10;99.90
39919;DHT22;25589;51.552;13.424;2023-07-29T12:37:39;27.10;99.90
39919;DHT22;25589;51.552;13.424;2023-07-29T12:40:21;27.00;99.90
39919;DHT22;25589;51.552;13.424;2023-07-29T12:42:48;26.90;99.90
39919;DHT22;25589;51.552;13.424;2023-07-29T12:45:15;27.20;99.90
39919;DHT22;25589;51.552;13.424;2023-07-29T12:47:41;27.30;99.90
39919;DHT22;25589;51.552;13.424;2023-07-29T12:50:07;27.30;99.90
39919;DHT22;25589;51.552;13.424;2023-07-29T12:52:33;27.20;99.90
39919;DHT22;25589;51.552;13.424;2023-07-29T12:54:58;27.20;99.90
39919;DHT22;25589;51.552;13.424;2023-07-29T12:57:24;27.10;99.90
39919;DHT22;25589;51.552;13.424;2023-07-29T12:59:49;27.10;99.90
39919;DHT22;25589;51.552;13.424;2023-07-29T13:02:15;27.10;99.90
39919;DHT22;25589;51.552;13.424;2023-07-29T13:04:40;27.10;99.90
39919;DHT22;25589;51.552;13.424;2023-07-29T13:07:06;27.20;99.90
39919;DHT22;25589;51.552;13.424;2023-07-29T13:09:32;27.20;99.90
39919;DHT22;25589;51.552;13.424;2023-07-29T13:11:57;27.40;99.90
39919;DHT22;25589;51.552;13.424;2023-07-29T13:14:23;27.60;99.90
39919;DHT22;25589;51.552;13.424;2023-07-29T13:16:48;27.60;99.90
39919;DHT22;25589;51.552;13.424;2023-07-29T13:19:14;27.60;99.90
39919;DHT22;25589;51.552;13.424;2023-07-29T13:21:39;27.50;99.90
39919;DHT22;25589;51.552;13.424;2023-07-29T13:24:05;27.40;99.90
39919;DHT22;25589;51.552;13.424;2023-07-29T13:26:31;27.40;99.90
39919;DHT22;25589;51.552;13.424;2023-07-29T13:28:56;27.50;99.90
39919;DHT22;25589;51.552;13.424;2023-07-29T13:31:22;27.60;99.90
39919;DHT22;25589;51.552;13.424;2023-07-29T13:33:47;27.80;99.90
39919;DHT22;25589;51.552;13.424;2023-07-29T13:36:13;27.70;99.90
39919;DHT22;25589;51.552;13.424;2023-07-29T13:38:38;27.80;99.90
39919;DHT22;25589;51.552;13.424;2023-07-29T13:41:05;27.70;99.90
39919;DHT22;25589;51.552;13.424;2023-07-29T13:43:31;27.90;99.90
39919;DHT22;25589;51.552;13.424;2023-07-29T13:45:56;28.30;99.90
39919;DHT22;25589;51.552;13.424;2023-07-29T13:48:22;28.40;99.90
39919;DHT22;25589;51.552;13.424;2023-07-29T13:50:47;28.30;99.90
39919;DHT22;25589;51.552;13.424;2023-07-29T13:53:13;28.30;99.90
39919;DHT22;25589;51.552;13.424;2023-07-29T13:55:39;28.10;99.90
39919;DHT22;25589;51.552;13.424;2023-07-29T13:58:04;27.90;99.90
39919;DHT22;25589;51.552;13.424;2023-07-29T14:00:30;28.00;99.90
39919;DHT22;25589;51.552;13.424;2023-07-29T14:02:55;27.60;99.90
39919;DHT22;25589;51.552;13.424;2023-07-29T14:05:21;27.10;99.90
39919;DHT22;25589;51.552;13.424;2023-07-29T14:07:46;26.80;99.90
39919;DHT22;25589;51.552;13.424;2023-07-29T14:10:12;26.50;99.90
39919;DHT22;25589;51.552;13.424;2023-07-29T14:12:37;26.40;99.90
39919;DHT22;25589;51.552;13.424;2023-07-29T14:15:04;26.20;99.90
39919;DHT22;25589;51.552;13.424;2023-07-29T14:17:31;26.20;99.90
39919;DHT22;25589;51.552;13.424;2023-07-29T14:19:56;26.40;99.90
39919;DHT22;25589;51.552;13.424;2023-07-29T14:22:22;26.40;99.90
39919;DHT22;25589;51.552;13.424;2023-07-29T14:24:48;26.40;99.90
39919;DHT22;25589;51.552;13.424;2023-07-29T14:27:13;26.60;99.90
39919;DHT22;25589;51.552;13.424;2023-07-29T14:29:39;26.70;99.90
39919;DHT22;25589;51.552;13.424;2023-07-29T14:32:05;26.70;99.90
39919;DHT22;25589;51.552;13.424;2023-07-29T14:34:31;27.00;99.90
39919;DHT22;25589;51.552;13.424;2023-07-29T14:36:56;27.20;99.90
39919;DHT22;25589;51.552;13.424;2023-07-29T14:39:22;27.40;99.90
39919;DHT22;25589;51.552;13.424;2023-07-29T14:41:47;27.40;99.90
39919;DHT22;25589;51.552;13.424;2023-07-29T14:44:13;27.50;99.90
39919;DHT22;25589;51.552;13.424;2023-07-29T14:46:38;28.20;99.90
39919;DHT22;25589;51.552;13.424;2023-07-29T14:49:04;28.80;99.90
39919;DHT22;25589;51.552;13.424;2023-07-29T14:51:29;29.40;99.90
39919;DHT22;25589;51.552;13.424;2023-07-29T14:53:55;29.90;99.90
39919;DHT22;25589;51.552;13.424;2023-07-29T14:56:20;30.70;99.80
39919;DHT22;25589;51.552;13.424;2023-07-29T14:58:46;30.40;99.10
39919;DHT22;25589;51.552;13.424;2023-07-29T15:01:12;30.30;99.00
39919;DHT22;25589;51.552;13.424;2023-07-29T15:03:37;30.60;98.50
39919;DHT22;25589;51.552;13.424;2023-07-29T15:06:03;30.80;98.30
39919;DHT22;25589;51.552;13.424;2023-07-29T15:08:28;30.90;97.70
39919;DHT22;25589;51.552;13.424;2023-07-29T15:10:54;30.30;98.10
39919;DHT22;25589;51.552;13.424;2023-07-29T15:13:20;30.00;98.60
39919;DHT22;25589;51.552;13.424;2023-07-29T15:15:45;29.60;99.10
39919;DHT22;25589;51.552;13.424;2023-07-29T15:18:11;29.30;99.60
39919;DHT22;25589;51.552;13.424;2023-07-29T15:20:37;29.30;99.80
39919;DHT22;25589;51.552;13.424;2023-07-29T15:23:02;29.20;99.90